Time;durP1;ratioP1;P1;durP2;ratioP2;P2;SDS_P1;SDS_P2;PMS_P1;PMS_P2;Temp;Humidity;BMP_temperature;BMP_pressure;BME280_temperature;BME280_humidity;BME280_pressure;Samples;Min_cycle;Max_cycle;Signal;HPM_P1;HPM_P2
2024/01/18 00:02:05;;;;;;;1.70;0.67;;;;;;;;;;20915318;28;20252;-80
2024/01/18 00:12:07;;;;;;;0.40;0.40;;;;;;;;;;20910651;28;20355;-81
2024/01/18 00:22:09;;;;;;;0.53;0.43;;;;;;;;;;20917188;28;20616;-80
2024/01/18 00:32:11;;;;;;;0.30;0.30;;;;;;;;;;20936944;28;20275;-81
2024/01/18 00:42:12;;;;;;;0.60;0.53;;;;;;;;;;20898773;28;20228;-80
2024/01/18 00:52:14;;;;;;;0.50;0.50;;;;;;;;;;20902624;28;20275;-81
2024/01/18 01:02:23;;;;;;;0.37;0.37;;;;;;;;;;20935398;28;20771;-82
2024/01/18 01:12:31;;;;;;;0.57;0.47;;;;;;;;;;20875929;28;20614;-81
2024/01/18 01:22:33;;;;;;;1.20;0.83;;;;;;;;;;20927689;28;20276;-81
2024/01/18 01:32:35;;;;;;;0.63;0.60;;;;;;;;;;20931357;28;20228;-82
2024/01/18 01:42:36;;;;;;;0.60;0.50;;;;;;;;;;20916168;28;20295;-81
2024/01/18 01:52:39;;;;;;;1.03;0.73;;;0.00;99.90;;;;;;20908553;28;20202;-82
2024/01/18 02:02:42;;;;;;;0.73;0.73;;;-0.10;99.90;;;;;;20890353;28;20222;-80
2024/01/18 02:12:45;;;;;;;1.10;0.80;;;;;;;;;;20902622;28;20206;-84
2024/01/18 02:22:46;;;;;;;1.43;0.83;;;;;;;;;;20906755;28;20230;-79
2024/01/18 02:32:48;;;;;;;1.17;0.60;;;;;;;;;;20897531;28;20632;-80
2024/01/18 02:42:52;;;;;;;0.77;0.70;;;;;;;;;;20908708;28;20225;-81
2024/01/18 02:52:53;;;;;;;0.87;0.80;;;;;;;;;;20916169;28;20236;-81
2024/01/18 03:02:55;;;;;;;1.83;1.47;;;;;;;;;;20884935;28;20222;-80
2024/01/18 03:12:57;;;;;;;0.70;0.60;;;;;;;;;;20941012;28;20263;-81
2024/01/18 03:22:58;;;;;;;0.97;0.70;;;;;;;;;;20920932;28;20256;-80
2024/01/18 03:33:00;;;;;;;0.67;0.57;;;;;;;;;;20890941;28;20263;-81
2024/01/18 03:43:02;;;;;;;1.20;0.70;;;;;;;;;;20899682;28;20213;-82
2024/01/18 03:53:04;;;;;;;1.20;0.90;;;;;;;;;;20886354;28;20218;-81
2024/01/18 04:03:05;;;;;;;1.10;0.93;;;-0.20;99.90;;;;;;20899890;28;20217;-82
2024/01/18 04:13:07;;;;;;;0.90;0.60;;;;;;;;;;20916735;28;20210;-81
2024/01/18 04:23:09;;;;;;;1.07;0.87;;;;;;;;;;20899908;28;20230;-80
2024/01/18 04:33:11;;;;;;;1.97;1.10;;;;;;;;;;20911042;28;20210;-79
2024/01/18 04:43:13;;;;;;;0.73;0.73;;;;;;;;;;20947227;28;20284;-79
2024/01/18 04:53:16;;;;;;;1.33;1.03;;;;;;;;;;20910979;28;20267;-80
2024/01/18 05:03:19;;;;;;;1.17;0.90;;;;;;;;;;20931386;28;20225;-80
2024/01/18 05:13:21;;;;;;;1.33;0.80;;;0.00;99.90;;;;;;20892925;28;20268;-82
2024/01/18 05:23:23;;;;;;;1.13;0.80;;;;;;;;;;20902852;28;20236;-79
2024/01/18 05:33:24;;;;;;;0.73;0.50;;;;;;;;;;20924900;28;20317;-81
2024/01/18 05:43:26;;;;;;;0.73;0.70;;;;;;;;;;20926641;28;20221;-80
2024/01/18 05:53:29;;;;;;;1.00;0.80;;;;;;;;;;20929720;28;20218;-78
2024/01/18 06:03:31;;;;;;;0.73;0.60;;;;;;;;;;20906252;28;20299;-78
2024/01/18 06:13:33;;;;;;;1.77;1.07;;;;;;;;;;20917884;28;20247;-78
2024/01/18 06:23:35;;;;;;;1.10;0.90;;;;;;;;;;20915219;28;20298;-80
2024/01/18 06:33:37;;;;;;;1.20;0.80;;;;;;;;;;20902677;28;20215;-80
2024/01/18 06:43:39;;;;;;;1.37;0.80;;;;;;;;;;20887717;28;20836;-81
2024/01/18 06:53:41;;;;;;;0.73;0.73;;;;;;;;;;20915873;28;20206;-80
2024/01/18 07:03:44;;;;;;;0.80;0.70;;;;;;;;;;20909339;28;20232;-81
2024/01/18 07:13:46;;;;;;;1.03;0.83;;;;;;;;;;20909986;28;20260;-81
2024/01/18 07:23:48;;;;;;;0.90;0.77;;;;;;;;;;20869236;28;20593;-81
2024/01/18 07:33:50;;;;;;;1.10;0.97;;;;;;;;;;20905234;28;20210;-81
2024/01/18 07:43:53;;;;;;;0.60;0.60;;;;;;;;;;20911708;28;20224;-80
2024/01/18 07:53:55;;;;;;;0.63;0.50;;;;;;;;;;20912006;28;20213;-78
2024/01/18 08:03:57;;;;;;;0.70;0.50;;;;;;;;;;20934341;28;20342;-80
2024/01/18 08:13:59;;;;;;;1.00;0.90;;;;;;;;;;20902767;28;20268;-82
2024/01/18 08:24:00;;;;;;;0.67;0.57;;;;;;;;;;20905545;28;20263;-82
2024/01/18 08:34:02;;;;;;;0.80;0.50;;;;;;;;;;20924485;28;20248;-82
2024/01/18 08:44:05;;;;;;;0.87;0.53;;;-3.10;99.90;;;;;;20866236;28;20279;-81
2024/01/18 08:54:07;;;;;;;0.40;0.40;;;;;;;;;;20909365;28;20206;-80
2024/01/18 09:04:09;;;;;;;0.70;0.60;;;;;;;;;;20915015;28;20221;-81
2024/01/18 09:14:12;;;;;;;0.47;0.40;;;;;;;;;;20919233;28;20567;-81
2024/01/18 09:24:14;;;;;;;0.50;0.50;;;;;;;;;;20889446;28;20222;-81
2024/01/18 09:34:16;;;;;;;0.73;0.57;;;;;;;;;;20891205;28;20214;-80
2024/01/18 09:44:24;;;;;;;0.40;0.40;;;;;;;;;;20921589;28;20248;-82
2024/01/18 09:54:26;;;;;;;0.87;0.60;;;;;;;;;;20860807;28;20259;-81
2024/01/18 10:04:28;;;;;;;0.40;0.40;;;;;;;;;;20875990;28;20628;-81
2024/01/18 10:14:43;;;;;;;1.00;0.60;;;;;;;;;;20870986;28;20225;-83
2024/01/18 10:24:45;;;;;;;0.60;0.60;;;;;;;;;;20882354;28;20255;-83
2024/01/18 10:34:47;;;;;;;1.43;0.80;;;;;;;;;;20859530;28;20332;-84
2024/01/18 10:44:49;;;;;;;1.00;0.90;;;;;;;;;;20877781;28;20292;-83
2024/01/18 10:54:53;;;;;;;1.03;0.90;;;0.70;99.90;;;;;;20897116;28;20209;-83
2024/01/18 11:04:55;;;;;;;1.50;1.03;;;;;;;;;;20882251;28;20291;-83
2024/01/18 11:14:57;;;;;;;1.93;0.60;;;;;;;;;;20873329;28;20214;-84
2024/01/18 11:25:04;;;;;;;1.23;1.00;;;0.80;99.90;;;;;;20903363;28;20287;-84
2024/01/18 11:35:09;;;;;;;1.53;1.10;;;;;;;;;;20898641;28;20209;-86
2024/01/18 11:45:18;;;;;;;1.43;1.10;;;;;;;;;;20865534;28;20283;-83
2024/01/18 11:55:23;;;;;;;2.07;1.20;;;;;;;;;;20860731;28;20210;-84
2024/01/18 12:05:25;;;;;;;1.07;0.90;;;;;;;;;;20862798;28;20251;-85
2024/01/18 12:15:30;;;;;;;6.57;2.43;;;;;;;;;;20880962;28;20240;-80
2024/01/18 12:25:32;;;;;;;2.13;1.30;;;;;;;;;;20913319;28;20210;-80
2024/01/18 12:35:36;;;;;;;1.10;0.80;;;;;;;;;;20890148;28;20243;-82
2024/01/18 12:45:47;;;;;;;0.63;0.53;;;1.50;99.90;;;;;;20918951;22;20958;-68
2024/01/18 12:55:52;;;;;;;2.70;1.20;;;;;;;;;;20781994;28;20214;-68
2024/01/18 13:05:54;;;;;;;1.43;0.90;;;;;;;;;;20767933;28;20255;-68
2024/01/18 13:15:58;;;;;;;1.30;1.10;;;1.50;99.90;;;;;;20768306;28;20226;-68
2024/01/18 13:26:00;;;;;;;2.37;1.03;;;;;;;;;;20777523;28;20713;-68
2024/01/18 13:36:03;;;;;;;0.90;0.70;;;;;;;;;;20772093;28;20219;-68
2024/01/18 13:46:06;;;;;;;0.80;0.70;;;;;;;;;;20787985;28;20238;-68
2024/01/18 13:56:08;;;;;;;0.70;0.60;;;1.20;99.90;;;;;;20776990;28;20643;-68
2024/01/18 14:06:16;;;;;;;2.23;1.17;;;1.20;99.90;;;;;;20789385;28;20292;-68
2024/01/18 14:16:18;;;;;;;1.57;1.27;;;;;;;;;;20758417;28;20214;-68
2024/01/18 14:26:20;;;;;;;2.33;1.53;;;;;;;;;;20769890;28;20222;-68
2024/01/18 14:36:22;;;;;;;3.77;2.03;;;;;;;;;;20768459;28;20689;-68
2024/01/18 14:46:23;;;;;;;3.80;2.20;;;;;;;;;;20769147;28;20222;-68
2024/01/18 14:56:26;;;;;;;1.90;1.50;;;;;;;;;;20786171;28;20218;-68
2024/01/18 15:06:28;;;;;;;2.97;1.80;;;;;;;;;;20785524;28;20226;-68
2024/01/18 15:16:30;;;;;;;2.03;1.37;;;;;;;;;;20784115;28;20585;-68
2024/01/18 15:26:32;;;;;;;2.90;1.70;;;;;;;;;;20779834;28;20759;-70
2024/01/18 15:36:38;;;;;;;3.57;2.20;;;;;;;;;;20765727;28;20215;-70
2024/01/18 15:46:47;;;;;;;5.70;2.97;;;;;;;;;;20784278;28;20234;-70
2024/01/18 15:56:49;;;;;;;5.20;3.10;;;;;;;;;;20767960;28;20218;-70
2024/01/18 16:06:51;;;;;;;3.93;2.30;;;;;;;;;;20766830;28;20227;-70
2024/01/18 16:16:53;;;;;;;2.40;1.87;;;;;;;;;;20750826;28;20214;-70
2024/01/18 16:26:55;;;;;;;2.33;1.20;;;;;;;;;;20765680;28;20325;-70
2024/01/18 16:36:56;;;;;;;3.30;1.83;;;;;;;;;;20750498;28;20222;-72
2024/01/18 16:46:58;;;;;;;2.77;2.00;;;;;;;;;;20762574;28;20223;-70
2024/01/18 16:57:02;;;;;;;2.23;1.70;;;;;;;;;;20757372;28;20724;-70
2024/01/18 17:07:04;;;;;;;3.27;2.10;;;;;;;;;;20798238;28;20288;-70
2024/01/18 17:17:08;;;;;;;4.27;2.40;;;;;;;;;;20830038;28;20526;-70
2024/01/18 17:27:13;;;;;;;2.57;1.97;;;;;;;;;;20804232;28;20226;-70
2024/01/18 17:37:15;;;;;;;2.23;1.73;;;;;;;;;;20802627;28;20217;-70
2024/01/18 17:47:17;;;;;;;2.40;1.90;;;-0.20;99.90;;;;;;20835431;28;20692;-71
2024/01/18 17:57:19;;;;;;;2.60;1.40;;;;;;;;;;20813131;28;20272;-71
2024/01/18 18:07:21;;;;;;;5.90;4.20;;;;;;;;;;20799630;28;20299;-69
2024/01/18 18:17:23;;;;;;;4.57;2.50;;;;;;;;;;20841046;22;20256;-71
2024/01/18 18:27:24;;;;;;;2.93;2.20;;;;;;;;;;20887374;28;20213;-72
2024/01/18 18:37:26;;;;;;;5.27;4.10;;;;;;;;;;20882084;28;20766;-70
2024/01/18 18:47:28;;;;;;;4.20;2.80;;;;;;;;;;20848611;28;20299;-71
2024/01/18 18:57:30;;;;;;;2.60;2.03;;;;;;;;;;20885006;28;20202;-71
2024/01/18 19:07:31;;;;;;;2.10;1.90;;;;;;;;;;20901365;28;20213;-71
2024/01/18 19:17:33;;;;;;;4.50;2.83;;;;;;;;;;20899276;28;20222;-71
2024/01/18 19:27:38;;;;;;;3.83;2.10;;;;;;;;;;20880251;28;20276;-72
2024/01/18 19:37:40;;;;;;;2.87;2.57;;;;;;;;;;20876610;28;20240;-72
2024/01/18 19:47:42;;;;;;;4.33;3.17;;;;;;;;;;20899097;28;20221;-72
2024/01/18 19:57:44;;;;;;;2.60;2.00;;;;;;;;;;20881218;28;20213;-71
2024/01/18 20:07:46;;;;;;;1.90;1.67;;;;;;;;;;20891121;28;20575;-72
2024/01/18 20:17:48;;;;;;;3.03;1.73;;;;;;;;;;20862616;28;20748;-71
2024/01/18 20:27:50;;;;;;;4.90;2.40;;;;;;;;;;20848113;28;20749;-72
2024/01/18 20:37:52;;;;;;;2.70;1.53;;;;;;;;;;20834662;28;20226;-71
2024/01/18 20:47:53;;;;;;;3.07;1.97;;;;;;;;;;20905072;28;20256;-72
2024/01/18 20:57:55;;;;;;;2.47;1.90;;;;;;;;;;20899737;28;20222;-71
2024/01/18 21:07:57;;;;;;;8.70;2.20;;;;;;;;;;20901340;28;20288;-71
2024/01/18 21:17:59;;;;;;;3.60;2.20;;;;;;;;;;20890823;28;20279;-72
2024/01/18 21:28:00;;;;;;;3.97;2.73;;;;;;;;;;20900076;28;20229;-71
2024/01/18 21:38:02;;;;;;;2.47;2.00;;;;;;;;;;20876100;28;20241;-71
2024/01/18 21:48:04;;;;;;;3.03;2.43;;;;;;;;;;20890942;28;20225;-71
2024/01/18 21:58:07;;;;;;;2.50;1.67;;;;;;;;;;20884331;28;20217;-71
2024/01/18 22:08:08;;;;;;;2.00;1.73;;;;;;;;;;20865273;28;20217;-71
2024/01/18 22:18:10;;;;;;;2.33;1.97;;;;;;;;;;20846882;28;20222;-71
2024/01/18 22:28:12;;;;;;;4.07;2.80;;;;;;;;;;20894626;28;20673;-71
2024/01/18 22:38:15;;;;;;;2.97;2.27;;;;;;;;;;20904809;28;20237;-71
2024/01/18 22:58:40;;;;;;;5.03;3.03;;;;;;;;;;20832714;28;20239;-84
2024/01/18 23:08:41;;;;;;;4.23;2.50;;;;;;;;;;20594715;28;20247;-88
2024/01/18 23:18:44;;;;;;;2.20;1.97;;;;;;;;;;19070349;30;1287251;-87
2024/01/18 23:28:45;;;;;;;1.90;1.50;;;;;;;;;;19047140;31;20243;-87
2024/01/18 23:38:47;;;;;;;2.77;2.53;;;;;;;;;;19049727;31;20331;-86
2024/01/18 23:48:49;;;;;;;2.03;1.83;;;;;;;;;;19072987;30;20238;-86
2024/01/18 23:58:51;;;;;;;3.33;2.30;;;;;;;;;;19065800;31;20242;-87
